sensor_id;sensor_type;location;lat;lon;timestamp;temperature;humidity
8269;DHT22;4174;48.304;16.364;2023-06-10T00:00:11;17.60;99.90
8269;DHT22;4174;48.304;16.364;2023-06-10T00:06:15;17.60;99.90
8269;DHT22;4174;48.304;16.364;2023-06-10T00:12:19;17.70;99.90
8269;DHT22;4174;48.304;16.364;2023-06-10T00:18:23;17.70;99.90
8269;DHT22;4174;48.304;16.364;2023-06-10T00:24:26;17.70;99.90
8269;DHT22;4174;48.304;16.364;2023-06-10T00:30:31;17.70;99.90
8269;DHT22;4174;48.304;16.364;2023-06-10T00:36:34;17.60;99.90
8269;DHT22;4174;48.304;16.364;2023-06-10T00:42:39;17.50;99.90
8269;DHT22;4174;48.304;16.364;2023-06-10T00:48:43;17.50;99.90
8269;DHT22;4174;48.304;16.364;2023-06-10T00:54:46;17.60;99.90
8269;DHT22;4174;48.304;16.364;2023-06-10T01:00:49;17.70;99.90
8269;DHT22;4174;48.304;16.364;2023-06-10T01:06:54;17.70;99.90
8269;DHT22;4174;48.304;16.364;2023-06-10T01:13:00;17.80;99.90
8269;DHT22;4174;48.304;16.364;2023-06-10T01:19:03;17.80;99.90
8269;DHT22;4174;48.304;16.364;2023-06-10T01:25:07;17.60;99.90
8269;DHT22;4174;48.304;16.364;2023-06-10T01:31:16;17.60;99.90
8269;DHT22;4174;48.304;16.364;2023-06-10T01:37:19;17.60;99.90
8269;DHT22;4174;48.304;16.364;2023-06-10T01:43:22;17.60;99.90
8269;DHT22;4174;48.304;16.364;2023-06-10T01:49:25;17.70;99.90
8269;DHT22;4174;48.304;16.364;2023-06-10T01:55:29;17.90;99.90
8269;DHT22;4174;48.304;16.364;2023-06-10T02:01:33;17.90;99.90
8269;DHT22;4174;48.304;16.364;2023-06-10T02:07:35;17.90;99.90
8269;DHT22;4174;48.304;16.364;2023-06-10T02:13:38;18.00;99.90
8269;DHT22;4174;48.304;16.364;2023-06-10T02:19:42;18.00;99.90
8269;DHT22;4174;48.304;16.364;2023-06-10T02:25:45;18.00;99.90
8269;DHT22;4174;48.304;16.364;2023-06-10T02:31:49;18.00;99.90
8269;DHT22;4174;48.304;16.364;2023-06-10T02:37:52;17.90;99.90
8269;DHT22;4174;48.304;16.364;2023-06-10T02:43:57;17.90;99.90
8269;DHT22;4174;48.304;16.364;2023-06-10T02:50:00;17.90;99.90
8269;DHT22;4174;48.304;16.364;2023-06-10T02:56:04;17.90;99.90
8269;DHT22;4174;48.304;16.364;2023-06-10T03:02:08;18.00;99.90
8269;DHT22;4174;48.304;16.364;2023-06-10T03:08:11;18.00;99.90
8269;DHT22;4174;48.304;16.364;2023-06-10T03:14:15;18.10;99.90
8269;DHT22;4174;48.304;16.364;2023-06-10T03:20:19;18.20;99.90
8269;DHT22;4174;48.304;16.364;2023-06-10T03:26:22;18.40;99.90
8269;DHT22;4174;48.304;16.364;2023-06-10T03:32:26;18.50;99.90
8269;DHT22;4174;48.304;16.364;2023-06-10T03:38:29;18.60;99.90
8269;DHT22;4174;48.304;16.364;2023-06-10T03:44:33;18.70;99.90
8269;DHT22;4174;48.304;16.364;2023-06-10T03:50:37;18.90;99.90
8269;DHT22;4174;48.304;16.364;2023-06-10T03:56:41;18.90;99.90
8269;DHT22;4174;48.304;16.364;2023-06-10T04:02:45;19.20;99.90
8269;DHT22;4174;48.304;16.364;2023-06-10T04:08:48;19.30;99.90
8269;DHT22;4174;48.304;16.364;2023-06-10T04:14:51;19.50;99.90
8269;DHT22;4174;48.304;16.364;2023-06-10T04:20:54;19.70;99.90
8269;DHT22;4174;48.304;16.364;2023-06-10T04:26:57;19.80;99.90
8269;DHT22;4174;48.304;16.364;2023-06-10T04:33:01;19.90;99.90
8269;DHT22;4174;48.304;16.364;2023-06-10T04:39:04;20.10;99.90
8269;DHT22;4174;48.304;16.364;2023-06-10T04:45:08;20.10;99.90
8269;DHT22;4174;48.304;16.364;2023-06-10T04:51:12;20.20;99.90
8269;DHT22;4174;48.304;16.364;2023-06-10T04:57:16;20.10;99.90
8269;DHT22;4174;48.304;16.364;2023-06-10T05:03:20;20.80;99.90
8269;DHT22;4174;48.304;16.364;2023-06-10T05:09:24;21.20;99.90
8269;DHT22;4174;48.304;16.364;2023-06-10T05:15:28;21.10;99.90
8269;DHT22;4174;48.304;16.364;2023-06-10T05:21:31;21.40;99.90
8269;DHT22;4174;48.304;16.364;2023-06-10T05:27:35;21.50;99.90
8269;DHT22;4174;48.304;16.364;2023-06-10T05:33:38;21.40;99.90
8269;DHT22;4174;48.304;16.364;2023-06-10T05:39:41;20.80;99.90
8269;DHT22;4174;48.304;16.364;2023-06-10T05:45:44;20.40;99.90
8269;DHT22;4174;48.304;16.364;2023-06-10T05:51:48;20.50;99.90
8269;DHT22;4174;48.304;16.364;2023-06-10T05:57:58;20.60;99.90
8269;DHT22;4174;48.304;16.364;2023-06-10T06:03:59;20.40;99.90
8269;DHT22;4174;48.304;16.364;2023-06-10T06:10:05;20.60;99.90
8269;DHT22;4174;48.304;16.364;2023-06-10T06:16:10;20.70;99.90
8269;DHT22;4174;48.304;16.364;2023-06-10T06:22:14;20.70;99.90
8269;DHT22;4174;48.304;16.364;2023-06-10T06:28:18;20.60;99.90
8269;DHT22;4174;48.304;16.364;2023-06-10T06:34:21;20.60;99.90
8269;DHT22;4174;48.304;16.364;2023-06-10T06:40:24;20.40;99.90
8269;DHT22;4174;48.304;16.364;2023-06-10T06:46:28;20.30;99.90
8269;DHT22;4174;48.304;16.364;2023-06-10T06:52:32;20.30;99.90
8269;DHT22;4174;48.304;16.364;2023-06-10T06:58:35;20.20;99.90
8269;DHT22;4174;48.304;16.364;2023-06-10T07:04:39;20.40;99.90
8269;DHT22;4174;48.304;16.364;2023-06-10T07:10:42;20.70;99.90
8269;DHT22;4174;48.304;16.364;2023-06-10T07:16:46;21.00;99.90
8269;DHT22;4174;48.304;16.364;2023-06-10T07:22:50;20.90;99.90
8269;DHT22;4174;48.304;16.364;2023-06-10T07:28:53;20.90;99.90
8269;DHT22;4174;48.304;16.364;2023-06-10T07:34:56;20.90;99.90
8269;DHT22;4174;48.304;16.364;2023-06-10T07:41:00;20.80;99.90
8269;DHT22;4174;48.304;16.364;2023-06-10T07:47:04;20.80;99.90
8269;DHT22;4174;48.304;16.364;2023-06-10T07:53:07;20.70;99.90
8269;DHT22;4174;48.304;16.364;2023-06-10T07:59:11;20.60;99.90
8269;DHT22;4174;48.304;16.364;2023-06-10T08:05:15;20.70;99.90
8269;DHT22;4174;48.304;16.364;2023-06-10T08:11:18;20.90;99.90
8269;DHT22;4174;48.304;16.364;2023-06-10T08:17:22;21.10;99.90
8269;DHT22;4174;48.304;16.364;2023-06-10T08:23:26;21.10;99.90
8269;DHT22;4174;48.304;16.364;2023-06-10T08:29:30;21.20;99.90
8269;DHT22;4174;48.304;16.364;2023-06-10T08:35:33;21.30;99.90
8269;DHT22;4174;48.304;16.364;2023-06-10T08:41:43;21.50;99.90
8269;DHT22;4174;48.304;16.364;2023-06-10T08:47:40;21.50;99.90
8269;DHT22;4174;48.304;16.364;2023-06-10T08:53:48;21.80;99.90
8269;DHT22;4174;48.304;16.364;2023-06-10T08:59:47;21.80;99.90
8269;DHT22;4174;48.304;16.364;2023-06-10T09:05:49;22.00;99.90
8269;DHT22;4174;48.304;16.364;2023-06-10T09:11:52;22.00;99.90
8269;DHT22;4174;48.304;16.364;2023-06-10T09:17:58;22.40;99.90
8269;DHT22;4174;48.304;16.364;2023-06-10T09:24:01;22.40;99.90
8269;DHT22;4174;48.304;16.364;2023-06-10T09:30:07;22.60;99.90
8269;DHT22;4174;48.304;16.364;2023-06-10T09:36:20;22.60;99.90
8269;DHT22;4174;48.304;16.364;2023-06-10T09:42:16;22.80;99.90
8269;DHT22;4174;48.304;16.364;2023-06-10T09:48:18;22.70;99.90
8269;DHT22;4174;48.304;16.364;2023-06-10T09:54:21;23.10;99.90
8269;DHT22;4174;48.304;16.364;2023-06-10T10:00:25;23.30;99.90
8269;DHT22;4174;48.304;16.364;2023-06-10T10:06:28;23.70;99.90
8269;DHT22;4174;48.304;16.364;2023-06-10T10:12:31;24.00;99.90
8269;DHT22;4174;48.304;16.364;2023-06-10T10:18:34;23.50;99.90
8269;DHT22;4174;48.304;16.364;2023-06-10T10:24:38;23.90;99.90
8269;DHT22;4174;48.304;16.364;2023-06-10T10:30:46;24.30;99.90
8269;DHT22;4174;48.304;16.364;2023-06-10T10:36:55;24.30;99.90
8269;DHT22;4174;48.304;16.364;2023-06-10T10:42:58;24.80;99.90
8269;DHT22;4174;48.304;16.364;2023-06-10T10:49:02;27.40;99.90
8269;DHT22;4174;48.304;16.364;2023-06-10T10:55:12;27.70;99.90
8269;DHT22;4174;48.304;16.364;2023-06-10T11:01:12;27.70;99.90
8269;DHT22;4174;48.304;16.364;2023-06-10T11:07:14;27.10;99.90
8269;DHT22;4174;48.304;16.364;2023-06-10T11:13:18;27.10;99.90
8269;DHT22;4174;48.304;16.364;2023-06-10T11:19:31;27.60;99.90
8269;DHT22;4174;48.304;16.364;2023-06-10T11:25:38;28.30;99.90
8269;DHT22;4174;48.304;16.364;2023-06-10T11:31:43;28.60;99.90
8269;DHT22;4174;48.304;16.364;2023-06-10T11:37:46;28.60;99.90
8269;DHT22;4174;48.304;16.364;2023-06-10T11:43:49;28.30;99.90
8269;DHT22;4174;48.304;16.364;2023-06-10T11:49:55;28.20;99.90
8269;DHT22;4174;48.304;16.364;2023-06-10T11:55:59;29.30;99.90
8269;DHT22;4174;48.304;16.364;2023-06-10T12:02:03;29.30;99.90
8269;DHT22;4174;48.304;16.364;2023-06-10T12:08:08;29.90;99.90
8269;DHT22;4174;48.304;16.364;2023-06-10T12:14:12;29.70;99.90
8269;DHT22;4174;48.304;16.364;2023-06-10T12:20:26;29.30;99.90
8269;DHT22;4174;48.304;16.364;2023-06-10T12:26:35;28.20;99.90
8269;DHT22;4174;48.304;16.364;2023-06-10T12:32:40;27.10;99.90
8269;DHT22;4174;48.304;16.364;2023-06-10T12:38:42;25.20;99.90
8269;DHT22;4174;48.304;16.364;2023-06-10T12:44:47;25.00;99.90
8269;DHT22;4174;48.304;16.364;2023-06-10T12:50:52;25.00;99.90
8269;DHT22;4174;48.304;16.364;2023-06-10T12:56:54;25.30;99.90
8269;DHT22;4174;48.304;16.364;2023-06-10T13:02:59;26.30;99.90
8269;DHT22;4174;48.304;16.364;2023-06-10T13:09:01;26.30;99.90
8269;DHT22;4174;48.304;16.364;2023-06-10T13:15:05;26.90;99.90
8269;DHT22;4174;48.304;16.364;2023-06-10T13:21:09;26.80;99.90
8269;DHT22;4174;48.304;16.364;2023-06-10T13:27:13;27.00;99.90
8269;DHT22;4174;48.304;16.364;2023-06-10T13:33:16;26.80;99.90
8269;DHT22;4174;48.304;16.364;2023-06-10T13:39:21;26.80;99.90
8269;DHT22;4174;48.304;16.364;2023-06-10T13:45:26;26.90;99.90
8269;DHT22;4174;48.304;16.364;2023-06-10T13:51:30;27.00;99.90
8269;DHT22;4174;48.304;16.364;2023-06-10T13:57:34;27.30;99.90
8269;DHT22;4174;48.304;16.364;2023-06-10T14:03:39;27.20;99.90
8269;DHT22;4174;48.304;16.364;2023-06-10T14:09:44;27.20;99.90
8269;DHT22;4174;48.304;16.364;2023-06-10T14:15:47;27.20;99.90
8269;DHT22;4174;48.304;16.364;2023-06-10T14:21:52;27.00;99.90
8269;DHT22;4174;48.304;16.364;2023-06-10T14:27:56;27.00;99.90
8269;DHT22;4174;48.304;16.364;2023-06-10T14:34:00;27.00;99.90
8269;DHT22;4174;48.304;16.364;2023-06-10T14:40:06;27.10;99.90
8269;DHT22;4174;48.304;16.364;2023-06-10T14:46:11;26.80;99.90
8269;DHT22;4174;48.304;16.364;2023-06-10T14:52:15;26.60;99.90
8269;DHT22;4174;48.304;16.364;2023-06-10T14:58:19;26.30;99.90
8269;DHT22;4174;48.304;16.364;2023-06-10T15:04:24;25.70;99.90
8269;DHT22;4174;48.304;16.364;2023-06-10T15:10:28;25.40;99.90
8269;DHT22;4174;48.304;16.364;2023-06-10T15:16:32;25.30;99.90
8269;DHT22;4174;48.304;16.364;2023-06-10T15:22:37;21.70;99.90
8269;DHT22;4174;48.304;16.364;2023-06-10T15:28:40;21.60;99.90
8269;DHT22;4174;48.304;16.364;2023-06-10T15:34:44;21.00;99.90
8269;DHT22;4174;48.304;16.364;2023-06-10T15:40:50;21.00;99.90
8269;DHT22;4174;48.304;16.364;2023-06-10T15:46:54;21.30;99.90
8269;DHT22;4174;48.304;16.364;2023-06-10T15:52:58;21.40;99.90
8269;DHT22;4174;48.304;16.364;2023-06-10T15:59:01;21.30;99.90
8269;DHT22;4174;48.304;16.364;2023-06-10T16:05:04;21.10;99.90
8269;DHT22;4174;48.304;16.364;2023-06-10T16:11:08;20.80;99.90
8269;DHT22;4174;48.304;16.364;2023-06-10T16:17:12;20.70;99.90
8269;DHT22;4174;48.304;16.364;2023-06-10T16:23:16;20.70;99.90
8269;DHT22;4174;48.304;16.364;2023-06-10T16:29:20;20.60;99.90
8269;DHT22;4174;48.304;16.364;2023-06-10T16:35:24;20.50;99.90
8269;DHT22;4174;48.304;16.364;2023-06-10T16:41:27;20.60;99.90
8269;DHT22;4174;48.304;16.364;2023-06-10T16:47:32;20.70;99.90
8269;DHT22;4174;48.304;16.364;2023-06-10T16:53:35;20.70;99.90
8269;DHT22;4174;48.304;16.364;2023-06-10T16:59:39;20.80;99.90
8269;DHT22;4174;48.304;16.364;2023-06-10T17:05:43;20.80;99.90
8269;DHT22;4174;48.304;16.364;2023-06-10T17:11:47;20.80;99.90
8269;DHT22;4174;48.304;16.364;2023-06-10T17:17:50;20.70;99.90
8269;DHT22;4174;48.304;16.364;2023-06-10T17:23:54;20.70;99.90
8269;DHT22;4174;48.304;16.364;2023-06-10T17:29:59;20.60;99.90
8269;DHT22;4174;48.304;16.364;2023-06-10T17:36:04;20.50;99.90
8269;DHT22;4174;48.304;16.364;2023-06-10T17:42:09;20.40;99.90
8269;DHT22;4174;48.304;16.364;2023-06-10T17:48:13;20.30;99.90
8269;DHT22;4174;48.304;16.364;2023-06-10T17:54:17;20.40;99.90
8269;DHT22;4174;48.304;16.364;2023-06-10T18:00:21;20.20;99.90
8269;DHT22;4174;48.304;16.364;2023-06-10T18:06:24;20.20;99.90
8269;DHT22;4174;48.304;16.364;2023-06-10T18:12:29;20.10;99.90
8269;DHT22;4174;48.304;16.364;2023-06-10T18:18:33;20.10;99.90
8269;DHT22;4174;48.304;16.364;2023-06-10T18:24:37;20.10;99.90
8269;DHT22;4174;48.304;16.364;2023-06-10T18:30:41;20.20;99.90
8269;DHT22;4174;48.304;16.364;2023-06-10T18:36:45;20.20;99.90
8269;DHT22;4174;48.304;16.364;2023-06-10T18:42:48;20.00;99.90
8269;DHT22;4174;48.304;16.364;2023-06-10T18:48:52;20.00;99.90
8269;DHT22;4174;48.304;16.364;2023-06-10T18:54:58;20.00;99.90
8269;DHT22;4174;48.304;16.364;2023-06-10T19:01:02;19.90;99.90
8269;DHT22;4174;48.304;16.364;2023-06-10T19:07:05;19.90;99.90
8269;DHT22;4174;48.304;16.364;2023-06-10T19:13:09;19.80;99.90
8269;DHT22;4174;48.304;16.364;2023-06-10T19:19:12;19.80;99.90
8269;DHT22;4174;48.304;16.364;2023-06-10T19:25:17;19.70;99.90
8269;DHT22;4174;48.304;16.364;2023-06-10T19:31:21;19.70;99.90
8269;DHT22;4174;48.304;16.364;2023-06-10T19:37:25;19.70;99.90
8269;DHT22;4174;48.304;16.364;2023-06-10T19:43:28;19.60;99.90
8269;DHT22;4174;48.304;16.364;2023-06-10T19:49:32;19.80;99.90
8269;DHT22;4174;48.304;16.364;2023-06-10T19:55:36;19.80;99.90
8269;DHT22;4174;48.304;16.364;2023-06-10T20:01:40;19.70;99.90
8269;DHT22;4174;48.304;16.364;2023-06-10T20:07:43;19.80;99.90
8269;DHT22;4174;48.304;16.364;2023-06-10T20:13:46;19.80;99.90
8269;DHT22;4174;48.304;16.364;2023-06-10T20:19:50;19.80;99.90
8269;DHT22;4174;48.304;16.364;2023-06-10T20:25:54;19.60;99.90
8269;DHT22;4174;48.304;16.364;2023-06-10T20:31:57;19.30;99.90
8269;DHT22;4174;48.304;16.364;2023-06-10T20:38:02;19.20;99.90
8269;DHT22;4174;48.304;16.364;2023-06-10T20:44:05;19.10;99.90
8269;DHT22;4174;48.304;16.364;2023-06-10T20:50:11;19.40;99.90
8269;DHT22;4174;48.304;16.364;2023-06-10T20:56:15;19.40;99.90
8269;DHT22;4174;48.304;16.364;2023-06-10T21:02:19;19.50;99.90
8269;DHT22;4174;48.304;16.364;2023-06-10T21:08:22;19.40;99.90
8269;DHT22;4174;48.304;16.364;2023-06-10T21:14:27;19.20;99.90
8269;DHT22;4174;48.304;16.364;2023-06-10T21:20:30;19.20;99.90
8269;DHT22;4174;48.304;16.364;2023-06-10T21:26:34;19.30;99.90
8269;DHT22;4174;48.304;16.364;2023-06-10T21:32:36;19.20;99.90
8269;DHT22;4174;48.304;16.364;2023-06-10T21:38:40;19.20;99.90
8269;DHT22;4174;48.304;16.364;2023-06-10T21:44:44;19.30;99.90
8269;DHT22;4174;48.304;16.364;2023-06-10T21:50:47;19.20;99.90
8269;DHT22;4174;48.304;16.364;2023-06-10T21:56:51;19.20;99.90
8269;DHT22;4174;48.304;16.364;2023-06-10T22:02:55;19.10;99.90
8269;DHT22;4174;48.304;16.364;2023-06-10T22:08:58;19.20;99.90
8269;DHT22;4174;48.304;16.364;2023-06-10T22:15:01;19.30;99.90
8269;DHT22;4174;48.304;16.364;2023-06-10T22:21:05;19.30;99.90
8269;DHT22;4174;48.304;16.364;2023-06-10T22:27:09;19.20;99.90
8269;DHT22;4174;48.304;16.364;2023-06-10T22:33:13;19.20;99.90
8269;DHT22;4174;48.304;16.364;2023-06-10T22:39:18;19.20;99.90
8269;DHT22;4174;48.304;16.364;2023-06-10T22:45:22;19.10;99.90
8269;DHT22;4174;48.304;16.364;2023-06-10T22:51:25;19.10;99.90
8269;DHT22;4174;48.304;16.364;2023-06-10T22:57:28;19.20;99.90
8269;DHT22;4174;48.304;16.364;2023-06-10T23:03:32;19.20;99.90
8269;DHT22;4174;48.304;16.364;2023-06-10T23:09:36;19.10;99.90
8269;DHT22;4174;48.304;16.364;2023-06-10T23:15:39;19.10;99.90
8269;DHT22;4174;48.304;16.364;2023-06-10T23:21:45;19.00;99.90
8269;DHT22;4174;48.304;16.364;2023-06-10T23:27:51;19.10;99.90
8269;DHT22;4174;48.304;16.364;2023-06-10T23:33:54;19.00;99.90
8269;DHT22;4174;48.304;16.364;2023-06-10T23:39:59;19.00;99.90
8269;DHT22;4174;48.304;16.364;2023-06-10T23:46:02;18.90;99.90
8269;DHT22;4174;48.304;16.364;2023-06-10T23:52:07;18.90;99.90
8269;DHT22;4174;48.304;16.364;2023-06-10T23:58:10;18.90;99.90
